Portada
METAR-TAF:

METAR-TAF

Aeroports :

Koror, Babeldaob, Palau

latitud: 07-22N, longitud: 134-32E, altitud: 54 m

Observació

L'informe es va fer fa 21 minuts, a les 15:50 UTC
Vent 4 kt del Nord-Est
Temperatura 26°C
Humitat 94%
Pressió 1009 hPa
Visibilitat: 22.5 km
Núvols disperses a una alçada de 1600 ft, Cumulus congestus.
Cel ennuvolat a una alçada de 11000 ft
Cel ennuvolat a una alçada de 29000 ft

METAR: PTRO 081550Z 04004KT 14SM SCT016TCU BKN110 BKN290 26/25 A2979 RMK TCU W

Hora: 01:11 (16:11 UTC)

Pronòstic

L'informe es va fer fa 4 hores i 33 minuts, a les 11:38 UTC
Pronòstic vàlid del 08 a les 12 UTC al 09 a les 12 UTC
Vent 5 kt del Est
Visibilitat: 10 km
Núvols disperses a una alçada de 1600 ft
Cel ennuvolat a una alçada de 11000 ft
xàfecs en les proximitats

TAF: PTRO 081138Z 0812/0912 09005KT P6SM VCSH SCT016 BKN110

Observacions i pronòstics meteorològics de més de 4000 aeroports (METAR i TAF).

Les estacions disponibles són els punts grocs i vermells al mapa.

Posi el ratolí al punt desitjat per veure el nom de l'estació.

Feu clic per veure les observacions i els pronòstics meteorològics.

Per canviar el mapa: feu clic els botons verds amb una creu de color negre per apropar; al botó verd amb un guió per allunyar la imatge; o en les fletxes verdes per a mapes adjacents.


METAR-TAF: